Terminal Aerodrome Forecast
Issued by NWS Topeka, KS

Home | Current Version | Previous Version | Graphics & Text | Print | Product List | Glossary On
Versions: 1 2 3 4 5 6 7 8 9 10 11 12 13 14
990
FTUS43 KTOP 241147
TAFTOP
TAF
KTOP 241147Z 2412/2512 20009KT P6SM SCT250 WS013/23042KT
     FM241600 23013G20KT P6SM FEW250
     FM242200 31008KT P6SM SCT150=

USA.gov is the U.S. government's official web portal to all federal, state and local government web resources and services.